sensor_id;sensor_type;location;lat;lon;timestamp;pressure;altitude;pressure_sealevel;temperature;humidity
66801;BME280;53703;50.326;19.122;2023-05-11T00:02:03;98846.16;;;17.54;37.14
66801;BME280;53703;50.326;19.122;2023-05-11T00:04:57;98847.89;;;17.68;37.00
66801;BME280;53703;50.326;19.122;2023-05-11T00:07:51;98847.05;;;17.73;36.85
66801;BME280;53703;50.326;19.122;2023-05-11T00:10:47;98843.79;;;17.75;36.88
66801;BME280;53703;50.326;19.122;2023-05-11T00:13:40;98842.27;;;17.71;37.07
66801;BME280;53703;50.326;19.122;2023-05-11T00:16:34;98842.02;;;17.55;37.46
66801;BME280;53703;50.326;19.122;2023-05-11T00:19:28;98844.04;;;17.47;37.65
66801;BME280;53703;50.326;19.122;2023-05-11T00:22:23;98842.61;;;17.44;37.77
66801;BME280;53703;50.326;19.122;2023-05-11T00:25:17;98845.13;;;17.53;37.62
66801;BME280;53703;50.326;19.122;2023-05-11T00:28:10;98842.93;;;17.70;37.32
66801;BME280;53703;50.326;19.122;2023-05-11T00:31:05;98841.59;;;17.70;37.32
66801;BME280;53703;50.326;19.122;2023-05-11T00:33:59;98844.89;;;17.74;37.19
66801;BME280;53703;50.326;19.122;2023-05-11T00:36:53;98845.49;;;17.55;37.51
66801;BME280;53703;50.326;19.122;2023-05-11T00:39:47;98843.65;;;17.64;37.43
66801;BME280;53703;50.326;19.122;2023-05-11T00:42:41;98844.16;;;17.48;37.77
66801;BME280;53703;50.326;19.122;2023-05-11T00:45:35;98843.91;;;17.43;37.92
66801;BME280;53703;50.326;19.122;2023-05-11T00:48:29;98840.11;;;17.34;38.13
66801;BME280;53703;50.326;19.122;2023-05-11T00:51:23;98844.77;;;17.43;37.93
66801;BME280;53703;50.326;19.122;2023-05-11T00:54:18;98840.97;;;17.54;37.65
66801;BME280;53703;50.326;19.122;2023-05-11T00:57:12;98842.69;;;17.65;37.54
66801;BME280;53703;50.326;19.122;2023-05-11T01:00:08;98842.31;;;17.64;37.63
66801;BME280;53703;50.326;19.122;2023-05-11T01:03:03;98845.52;;;17.68;37.60
66801;BME280;53703;50.326;19.122;2023-05-11T01:06:06;98846.76;;;17.62;37.67
66801;BME280;53703;50.326;19.122;2023-05-11T01:09:05;98845.98;;;17.58;37.84
66801;BME280;53703;50.326;19.122;2023-05-11T01:12:10;98845.97;;;17.45;38.06
66801;BME280;53703;50.326;19.122;2023-05-11T01:15:11;98844.71;;;17.44;38.05
66801;BME280;53703;50.326;19.122;2023-05-11T01:18:18;98845.83;;;17.44;38.05
66801;BME280;53703;50.326;19.122;2023-05-11T01:21:14;98850.15;;;17.32;38.20
66801;BME280;53703;50.326;19.122;2023-05-11T01:24:34;98847.09;;;17.41;38.05
66801;BME280;53703;50.326;19.122;2023-05-11T01:27:52;98848.02;;;17.53;37.88
66801;BME280;53703;50.326;19.122;2023-05-11T01:30:51;98849.20;;;17.41;38.09
66801;BME280;53703;50.326;19.122;2023-05-11T01:34:09;98847.23;;;17.30;38.34
66801;BME280;53703;50.326;19.122;2023-05-11T01:37:11;98849.56;;;17.27;38.43
66801;BME280;53703;50.326;19.122;2023-05-11T01:40:11;98846.61;;;17.37;38.17
66801;BME280;53703;50.326;19.122;2023-05-11T01:43:11;98847.33;;;17.33;38.25
66801;BME280;53703;50.326;19.122;2023-05-11T01:46:06;98846.46;;;17.44;38.08
66801;BME280;53703;50.326;19.122;2023-05-11T01:49:04;98845.95;;;17.29;38.50
66801;BME280;53703;50.326;19.122;2023-05-11T01:51:59;98841.94;;;17.33;38.37
66801;BME280;53703;50.326;19.122;2023-05-11T01:54:55;98844.29;;;17.49;38.05
66801;BME280;53703;50.326;19.122;2023-05-11T01:57:53;98843.90;;;17.38;38.33
66801;BME280;53703;50.326;19.122;2023-05-11T02:00:48;98848.23;;;17.20;38.58
66801;BME280;53703;50.326;19.122;2023-05-11T02:03:43;98845.01;;;17.18;38.76
66801;BME280;53703;50.326;19.122;2023-05-11T02:06:39;98846.91;;;17.12;38.90
66801;BME280;53703;50.326;19.122;2023-05-11T02:09:17;98848.15;;;17.25;38.72
66801;BME280;53703;50.326;19.122;2023-05-11T02:12:12;98849.85;;;17.28;38.53
66801;BME280;53703;50.326;19.122;2023-05-11T02:15:09;98851.77;;;17.22;38.72
66801;BME280;53703;50.326;19.122;2023-05-11T02:18:04;98850.64;;;17.23;38.68
66801;BME280;53703;50.326;19.122;2023-05-11T02:21:00;98853.85;;;17.16;38.89
66801;BME280;53703;50.326;19.122;2023-05-11T02:23:55;98853.56;;;17.19;38.91
66801;BME280;53703;50.326;19.122;2023-05-11T02:26:50;98853.42;;;17.42;38.62
66801;BME280;53703;50.326;19.122;2023-05-11T02:29:44;98848.35;;;17.35;38.61
66801;BME280;53703;50.326;19.122;2023-05-11T02:32:43;98851.55;;;17.25;38.90
66801;BME280;53703;50.326;19.122;2023-05-11T02:35:43;98852.98;;;17.36;38.78
66801;BME280;53703;50.326;19.122;2023-05-11T02:38:38;98854.11;;;17.26;38.92
66801;BME280;53703;50.326;19.122;2023-05-11T02:41:57;98852.90;;;17.20;39.09
66801;BME280;53703;50.326;19.122;2023-05-11T02:44:59;98855.97;;;17.18;39.11
66801;BME280;53703;50.326;19.122;2023-05-11T02:47:55;98849.62;;;17.09;39.38
66801;BME280;53703;50.326;19.122;2023-05-11T02:50:52;98850.79;;;17.02;39.52
66801;BME280;53703;50.326;19.122;2023-05-11T02:53:49;98853.27;;;17.11;39.31
66801;BME280;53703;50.326;19.122;2023-05-11T02:56:45;98850.11;;;17.13;39.48
66801;BME280;53703;50.326;19.122;2023-05-11T02:59:39;98852.02;;;17.18;39.33
66801;BME280;53703;50.326;19.122;2023-05-11T03:02:33;98852.99;;;17.10;39.46
66801;BME280;53703;50.326;19.122;2023-05-11T03:05:27;98853.14;;;17.12;39.56
66801;BME280;53703;50.326;19.122;2023-05-11T03:08:21;98856.44;;;17.20;39.47
66801;BME280;53703;50.326;19.122;2023-05-11T03:11:16;98857.31;;;17.16;39.47
66801;BME280;53703;50.326;19.122;2023-05-11T03:14:11;98858.41;;;16.97;39.90
66801;BME280;53703;50.326;19.122;2023-05-11T03:17:06;98862.00;;;16.96;39.90
66801;BME280;53703;50.326;19.122;2023-05-11T03:20:00;98856.33;;;17.02;39.76
66801;BME280;53703;50.326;19.122;2023-05-11T03:22:55;98857.63;;;17.07;39.74
66801;BME280;53703;50.326;19.122;2023-05-11T03:25:51;98856.58;;;16.98;39.92
66801;BME280;53703;50.326;19.122;2023-05-11T03:28:48;98855.74;;;16.95;39.92
66801;BME280;53703;50.326;19.122;2023-05-11T03:31:43;98854.01;;;16.95;39.92
66801;BME280;53703;50.326;19.122;2023-05-11T03:34:40;98854.02;;;16.97;39.93
66801;BME280;53703;50.326;19.122;2023-05-11T03:37:35;98852.17;;;16.92;39.98
66801;BME280;53703;50.326;19.122;2023-05-11T03:40:30;98857.11;;;17.00;39.86
66801;BME280;53703;50.326;19.122;2023-05-11T03:43:27;98858.03;;;16.91;39.98
66801;BME280;53703;50.326;19.122;2023-05-11T03:46:23;98857.63;;;17.05;39.75
66801;BME280;53703;50.326;19.122;2023-05-11T03:49:18;98862.52;;;17.10;39.71
66801;BME280;53703;50.326;19.122;2023-05-11T03:52:12;98860.83;;;17.19;39.44
66801;BME280;53703;50.326;19.122;2023-05-11T03:55:09;98860.20;;;17.22;39.46
66801;BME280;53703;50.326;19.122;2023-05-11T03:58:06;98862.17;;;17.15;39.50
66801;BME280;53703;50.326;19.122;2023-05-11T04:01:00;98861.31;;;17.04;39.65
66801;BME280;53703;50.326;19.122;2023-05-11T04:03:55;98859.38;;;17.01;39.71
66801;BME280;53703;50.326;19.122;2023-05-11T04:06:50;98860.03;;;16.98;39.76
66801;BME280;53703;50.326;19.122;2023-05-11T04:09:43;98860.31;;;16.93;39.88
66801;BME280;53703;50.326;19.122;2023-05-11T04:12:38;98863.38;;;16.86;39.91
66801;BME280;53703;50.326;19.122;2023-05-11T04:15:32;98863.06;;;16.93;39.77
66801;BME280;53703;50.326;19.122;2023-05-11T04:18:27;98866.77;;;16.91;39.68
66801;BME280;53703;50.326;19.122;2023-05-11T04:21:21;98867.53;;;17.05;39.51
66801;BME280;53703;50.326;19.122;2023-05-11T04:24:15;98865.47;;;17.08;39.48
66801;BME280;53703;50.326;19.122;2023-05-11T04:27:09;98866.13;;;17.07;39.50
66801;BME280;53703;50.326;19.122;2023-05-11T04:30:03;98867.52;;;17.05;39.58
66801;BME280;53703;50.326;19.122;2023-05-11T04:32:57;98867.17;;;16.95;39.74
66801;BME280;53703;50.326;19.122;2023-05-11T04:35:54;98867.67;;;16.96;39.66
66801;BME280;53703;50.326;19.122;2023-05-11T04:38:50;98870.36;;;16.92;39.71
66801;BME280;53703;50.326;19.122;2023-05-11T04:41:44;98869.77;;;16.97;39.75
66801;BME280;53703;50.326;19.122;2023-05-11T04:44:38;98871.92;;;16.98;39.89
66801;BME280;53703;50.326;19.122;2023-05-11T04:47:33;98873.30;;;17.05;39.88
66801;BME280;53703;50.326;19.122;2023-05-11T04:50:27;98876.67;;;16.92;40.08
66801;BME280;53703;50.326;19.122;2023-05-11T04:53:21;98875.49;;;16.44;42.03
66801;BME280;53703;50.326;19.122;2023-05-11T04:56:16;98879.05;;;16.86;41.72
66801;BME280;53703;50.326;19.122;2023-05-11T04:59:11;98879.17;;;17.21;40.29
66801;BME280;53703;50.326;19.122;2023-05-11T05:02:05;98881.55;;;17.24;40.10
66801;BME280;53703;50.326;19.122;2023-05-11T05:05:00;98883.70;;;17.34;40.16
66801;BME280;53703;50.326;19.122;2023-05-11T05:07:57;98882.01;;;17.28;40.04
66801;BME280;53703;50.326;19.122;2023-05-11T05:10:51;98885.72;;;17.26;40.15
66801;BME280;53703;50.326;19.122;2023-05-11T05:13:45;98883.75;;;17.03;40.23
66801;BME280;53703;50.326;19.122;2023-05-11T05:16:39;98879.58;;;16.75;40.69
66801;BME280;53703;50.326;19.122;2023-05-11T05:19:33;98880.95;;;16.78;40.88
66801;BME280;53703;50.326;19.122;2023-05-11T05:22:27;98878.27;;;16.53;40.82
66801;BME280;53703;50.326;19.122;2023-05-11T05:25:21;98881.00;;;16.53;40.84
66801;BME280;53703;50.326;19.122;2023-05-11T05:28:14;98882.05;;;16.59;40.64
66801;BME280;53703;50.326;19.122;2023-05-11T05:31:08;98882.39;;;16.52;40.51
66801;BME280;53703;50.326;19.122;2023-05-11T05:34:02;98882.65;;;16.54;40.39
66801;BME280;53703;50.326;19.122;2023-05-11T05:36:56;98880.23;;;16.53;40.45
66801;BME280;53703;50.326;19.122;2023-05-11T05:39:50;98879.20;;;16.61;40.54
66801;BME280;53703;50.326;19.122;2023-05-11T05:42:43;98877.55;;;16.82;40.33
66801;BME280;53703;50.326;19.122;2023-05-11T05:45:37;98877.95;;;16.90;40.67
66801;BME280;53703;50.326;19.122;2023-05-11T05:48:31;98879.79;;;16.89;40.92
66801;BME280;53703;50.326;19.122;2023-05-11T05:51:24;98879.61;;;17.07;40.72
66801;BME280;53703;50.326;19.122;2023-05-11T05:54:18;98880.31;;;17.13;40.73
66801;BME280;53703;50.326;19.122;2023-05-11T05:57:12;98880.64;;;16.89;41.26
66801;BME280;53703;50.326;19.122;2023-05-11T06:00:10;98880.75;;;16.77;41.52
66801;BME280;53703;50.326;19.122;2023-05-11T06:03:04;98883.71;;;16.87;41.23
66801;BME280;53703;50.326;19.122;2023-05-11T06:05:58;98881.77;;;17.00;40.84
66801;BME280;53703;50.326;19.122;2023-05-11T06:08:53;98883.17;;;17.25;40.28
66801;BME280;53703;50.326;19.122;2023-05-11T06:11:47;98886.40;;;17.30;40.38
66801;BME280;53703;50.326;19.122;2023-05-11T06:14:41;98884.31;;;17.33;40.32
66801;BME280;53703;50.326;19.122;2023-05-11T06:17:19;98881.29;;;17.29;40.55
66801;BME280;53703;50.326;19.122;2023-05-11T06:20:14;98881.68;;;17.41;40.24
66801;BME280;53703;50.326;19.122;2023-05-11T06:23:08;98887.13;;;17.35;40.22
66801;BME280;53703;50.326;19.122;2023-05-11T06:26:02;98888.88;;;17.42;40.42
66801;BME280;53703;50.326;19.122;2023-05-11T06:28:56;98888.91;;;17.20;40.31
66801;BME280;53703;50.326;19.122;2023-05-11T06:31:49;98889.98;;;17.15;40.30
66801;BME280;53703;50.326;19.122;2023-05-11T06:34:46;98890.14;;;17.28;40.01
66801;BME280;53703;50.326;19.122;2023-05-11T06:37:39;98895.36;;;17.29;39.98
66801;BME280;53703;50.326;19.122;2023-05-11T06:40:33;98894.41;;;17.40;39.83
66801;BME280;53703;50.326;19.122;2023-05-11T06:43:27;98892.37;;;17.47;40.19
66801;BME280;53703;50.326;19.122;2023-05-11T06:46:21;98894.25;;;17.47;40.18
66801;BME280;53703;50.326;19.122;2023-05-11T06:49:15;98891.78;;;17.69;40.20
66801;BME280;53703;50.326;19.122;2023-05-11T06:52:09;98892.14;;;17.50;41.12
66801;BME280;53703;50.326;19.122;2023-05-11T06:55:03;98884.70;;;17.63;40.18
66801;BME280;53703;50.326;19.122;2023-05-11T06:57:57;98885.98;;;17.61;39.93
66801;BME280;53703;50.326;19.122;2023-05-11T07:00:50;98884.38;;;17.48;40.03
66801;BME280;53703;50.326;19.122;2023-05-11T07:03:44;98884.58;;;17.50;39.65
66801;BME280;53703;50.326;19.122;2023-05-11T07:06:40;98883.45;;;17.46;39.57
66801;BME280;53703;50.326;19.122;2023-05-11T07:09:34;98880.60;;;17.15;41.52
66801;BME280;53703;50.326;19.122;2023-05-11T07:12:28;98883.89;;;17.34;40.58
66801;BME280;53703;50.326;19.122;2023-05-11T07:15:22;98882.30;;;17.57;40.50
66801;BME280;53703;50.326;19.122;2023-05-11T07:18:15;98877.67;;;17.65;40.53
66801;BME280;53703;50.326;19.122;2023-05-11T07:21:10;98873.13;;;17.47;41.73
66801;BME280;53703;50.326;19.122;2023-05-11T07:24:04;98873.98;;;17.44;41.30
66801;BME280;53703;50.326;19.122;2023-05-11T07:26:58;98871.90;;;17.66;40.13
66801;BME280;53703;50.326;19.122;2023-05-11T07:29:53;98875.30;;;17.71;40.74
66801;BME280;53703;50.326;19.122;2023-05-11T07:32:47;98869.55;;;17.60;39.84
66801;BME280;53703;50.326;19.122;2023-05-11T07:35:41;98872.20;;;17.59;39.89
66801;BME280;53703;50.326;19.122;2023-05-11T07:38:34;98872.84;;;17.64;40.23
66801;BME280;53703;50.326;19.122;2023-05-11T07:41:29;98872.38;;;17.62;40.78
66801;BME280;53703;50.326;19.122;2023-05-11T07:44:23;98872.45;;;17.62;40.47
66801;BME280;53703;50.326;19.122;2023-05-11T07:47:16;98871.98;;;17.62;40.58
66801;BME280;53703;50.326;19.122;2023-05-11T07:50:12;98872.08;;;17.67;41.12
66801;BME280;53703;50.326;19.122;2023-05-11T07:53:08;98865.53;;;17.78;41.84
66801;BME280;53703;50.326;19.122;2023-05-11T07:56:02;98869.23;;;17.52;42.04
66801;BME280;53703;50.326;19.122;2023-05-11T07:58:56;98865.06;;;17.57;41.69
66801;BME280;53703;50.326;19.122;2023-05-11T08:01:50;98867.39;;;17.45;41.56
66801;BME280;53703;50.326;19.122;2023-05-11T08:04:44;98867.48;;;17.57;41.18
66801;BME280;53703;50.326;19.122;2023-05-11T08:07:38;98862.84;;;17.69;40.66
66801;BME280;53703;50.326;19.122;2023-05-11T08:10:33;98855.33;;;17.71;40.63
66801;BME280;53703;50.326;19.122;2023-05-11T08:13:27;98856.55;;;17.77;40.09
66801;BME280;53703;50.326;19.122;2023-05-11T08:16:21;98857.82;;;17.65;41.07
66801;BME280;53703;50.326;19.122;2023-05-11T08:19:15;98856.39;;;17.76;40.36
66801;BME280;53703;50.326;19.122;2023-05-11T08:22:09;98853.07;;;17.77;40.64
66801;BME280;53703;50.326;19.122;2023-05-11T08:25:04;98853.81;;;17.82;40.52
66801;BME280;53703;50.326;19.122;2023-05-11T08:27:57;98853.02;;;17.70;40.88
66801;BME280;53703;50.326;19.122;2023-05-11T08:30:57;98847.83;;;17.65;40.83
66801;BME280;53703;50.326;19.122;2023-05-11T08:33:51;98847.46;;;17.74;41.23
66801;BME280;53703;50.326;19.122;2023-05-11T08:36:46;98852.17;;;17.62;41.58
66801;BME280;53703;50.326;19.122;2023-05-11T08:39:39;98847.22;;;17.66;41.40
66801;BME280;53703;50.326;19.122;2023-05-11T08:42:38;98847.62;;;17.80;41.18
66801;BME280;53703;50.326;19.122;2023-05-11T08:45:33;98847.13;;;17.80;40.85
66801;BME280;53703;50.326;19.122;2023-05-11T08:48:32;98848.70;;;17.95;41.02
66801;BME280;53703;50.326;19.122;2023-05-11T08:51:26;98845.20;;;17.92;41.04
66801;BME280;53703;50.326;19.122;2023-05-11T08:54:20;98840.88;;;17.79;40.67
66801;BME280;53703;50.326;19.122;2023-05-11T08:57:15;98838.02;;;17.87;40.60
66801;BME280;53703;50.326;19.122;2023-05-11T09:00:12;98838.35;;;17.82;39.97
66801;BME280;53703;50.326;19.122;2023-05-11T09:03:07;98836.80;;;17.86;40.65
66801;BME280;53703;50.326;19.122;2023-05-11T09:06:03;98836.86;;;17.99;41.23
66801;BME280;53703;50.326;19.122;2023-05-11T09:08:59;98833.84;;;17.84;42.77
66801;BME280;53703;50.326;19.122;2023-05-11T09:11:53;98832.84;;;17.80;41.17
66801;BME280;53703;50.326;19.122;2023-05-11T09:14:47;98832.42;;;17.85;40.97
66801;BME280;53703;50.326;19.122;2023-05-11T09:17:41;98831.60;;;17.81;40.67
66801;BME280;53703;50.326;19.122;2023-05-11T09:20:35;98827.62;;;17.85;40.28
66801;BME280;53703;50.326;19.122;2023-05-11T09:23:35;98823.71;;;17.93;40.02
66801;BME280;53703;50.326;19.122;2023-05-11T09:26:29;98832.91;;;17.99;39.53
66801;BME280;53703;50.326;19.122;2023-05-11T09:29:26;98829.71;;;18.01;39.71
66801;BME280;53703;50.326;19.122;2023-05-11T09:32:22;98834.34;;;17.95;39.41
66801;BME280;53703;50.326;19.122;2023-05-11T09:35:27;98830.92;;;18.04;39.88
66801;BME280;53703;50.326;19.122;2023-05-11T09:38:21;98831.95;;;17.97;39.17
66801;BME280;53703;50.326;19.122;2023-05-11T09:41:00;98832.42;;;18.01;37.91
66801;BME280;53703;50.326;19.122;2023-05-11T09:44:04;98826.01;;;18.00;37.80
66801;BME280;53703;50.326;19.122;2023-05-11T09:47:21;98820.69;;;17.99;39.95
66801;BME280;53703;50.326;19.122;2023-05-11T09:50:20;98818.75;;;17.74;39.96
66801;BME280;53703;50.326;19.122;2023-05-11T09:53:18;98817.67;;;17.72;39.33
66801;BME280;53703;50.326;19.122;2023-05-11T09:56:12;98812.88;;;17.92;38.52
66801;BME280;53703;50.326;19.122;2023-05-11T09:59:07;98812.95;;;17.94;38.46
66801;BME280;53703;50.326;19.122;2023-05-11T10:02:18;98805.98;;;17.84;38.86
66801;BME280;53703;50.326;19.122;2023-05-11T10:05:14;98803.52;;;17.93;38.13
66801;BME280;53703;50.326;19.122;2023-05-11T10:08:08;98800.96;;;17.99;38.04
66801;BME280;53703;50.326;19.122;2023-05-11T10:11:03;98797.60;;;18.03;36.61
66801;BME280;53703;50.326;19.122;2023-05-11T10:14:00;98799.16;;;18.12;34.88
66801;BME280;53703;50.326;19.122;2023-05-11T10:16:57;98798.54;;;18.12;35.43
66801;BME280;53703;50.326;19.122;2023-05-11T10:19:55;98791.67;;;18.15;34.61
66801;BME280;53703;50.326;19.122;2023-05-11T10:22:40;98796.36;;;18.15;34.39
66801;BME280;53703;50.326;19.122;2023-05-11T10:25:35;98794.80;;;18.21;33.99
66801;BME280;53703;50.326;19.122;2023-05-11T10:28:31;98792.93;;;18.27;32.03
66801;BME280;53703;50.326;19.122;2023-05-11T10:31:27;98797.90;;;18.14;33.93
66801;BME280;53703;50.326;19.122;2023-05-11T10:34:21;98799.08;;;18.24;32.50
66801;BME280;53703;50.326;19.122;2023-05-11T10:37:17;98793.17;;;18.22;32.08
66801;BME280;53703;50.326;19.122;2023-05-11T10:40:13;98793.70;;;17.89;34.35
66801;BME280;53703;50.326;19.122;2023-05-11T10:43:39;98794.63;;;17.89;33.85
66801;BME280;53703;50.326;19.122;2023-05-11T10:46:54;98784.86;;;17.96;33.51
66801;BME280;53703;50.326;19.122;2023-05-11T10:50:09;98780.92;;;17.67;33.92
66801;BME280;53703;50.326;19.122;2023-05-11T10:53:23;98786.95;;;17.95;33.49
66801;BME280;53703;50.326;19.122;2023-05-11T10:56:46;98788.23;;;18.08;31.77
66801;BME280;53703;50.326;19.122;2023-05-11T11:00:06;98790.06;;;18.06;32.07
66801;BME280;53703;50.326;19.122;2023-05-11T11:03:13;98784.89;;;18.12;31.81
66801;BME280;53703;50.326;19.122;2023-05-11T11:06:28;98787.88;;;18.10;31.95
66801;BME280;53703;50.326;19.122;2023-05-11T11:09:23;98778.83;;;18.00;31.04
66801;BME280;53703;50.326;19.122;2023-05-11T11:12:17;98778.14;;;17.83;32.58
66801;BME280;53703;50.326;19.122;2023-05-11T11:15:12;98777.25;;;17.85;32.90
66801;BME280;53703;50.326;19.122;2023-05-11T11:18:26;98773.05;;;17.77;33.20
66801;BME280;53703;50.326;19.122;2023-05-11T11:21:41;98773.30;;;17.85;33.07
66801;BME280;53703;50.326;19.122;2023-05-11T11:24:51;98768.72;;;18.03;32.60
66801;BME280;53703;50.326;19.122;2023-05-11T11:28:00;98771.88;;;18.10;32.08
66801;BME280;53703;50.326;19.122;2023-05-11T11:31:24;98774.08;;;18.03;32.67
66801;BME280;53703;50.326;19.122;2023-05-11T11:34:37;98767.67;;;17.89;33.70
66801;BME280;53703;50.326;19.122;2023-05-11T11:38:01;98773.78;;;17.93;33.23
66801;BME280;53703;50.326;19.122;2023-05-11T11:40:39;98770.73;;;18.14;32.97
66801;BME280;53703;50.326;19.122;2023-05-11T11:43:46;98768.94;;;18.12;32.92
66801;BME280;53703;50.326;19.122;2023-05-11T11:46:46;98768.02;;;18.13;32.85
66801;BME280;53703;50.326;19.122;2023-05-11T11:49:43;98768.48;;;18.00;33.87
66801;BME280;53703;50.326;19.122;2023-05-11T11:52:37;98770.45;;;17.70;34.56
66801;BME280;53703;50.326;19.122;2023-05-11T11:55:49;98767.67;;;17.79;34.10
66801;BME280;53703;50.326;19.122;2023-05-11T11:59:02;98769.58;;;17.70;34.26
66801;BME280;53703;50.326;19.122;2023-05-11T12:02:01;98771.48;;;18.12;33.56
66801;BME280;53703;50.326;19.122;2023-05-11T12:05:03;98764.95;;;18.10;33.67
66801;BME280;53703;50.326;19.122;2023-05-11T12:08:06;98768.45;;;18.14;33.55
66801;BME280;53703;50.326;19.122;2023-05-11T12:11:04;98765.99;;;18.16;33.28
66801;BME280;53703;50.326;19.122;2023-05-11T12:13:58;98767.23;;;18.18;33.42
66801;BME280;53703;50.326;19.122;2023-05-11T12:17:11;98763.71;;;18.11;34.03
66801;BME280;53703;50.326;19.122;2023-05-11T12:20:16;98757.16;;;17.86;34.98
66801;BME280;53703;50.326;19.122;2023-05-11T12:23:14;98756.61;;;17.96;34.87
66801;BME280;53703;50.326;19.122;2023-05-11T12:26:09;98754.02;;;17.97;34.90
66801;BME280;53703;50.326;19.122;2023-05-11T12:29:13;98753.25;;;18.10;34.48
66801;BME280;53703;50.326;19.122;2023-05-11T12:32:11;98760.83;;;18.18;33.94
66801;BME280;53703;50.326;19.122;2023-05-11T12:35:07;98754.29;;;18.15;34.33
66801;BME280;53703;50.326;19.122;2023-05-11T12:38:02;98754.79;;;18.08;34.55
66801;BME280;53703;50.326;19.122;2023-05-11T12:40:55;98754.81;;;17.82;35.75
66801;BME280;53703;50.326;19.122;2023-05-11T12:43:50;98745.81;;;17.82;35.43
66801;BME280;53703;50.326;19.122;2023-05-11T12:46:46;98743.40;;;17.85;35.44
66801;BME280;53703;50.326;19.122;2023-05-11T12:49:41;98738.88;;;18.05;34.93
66801;BME280;53703;50.326;19.122;2023-05-11T12:52:35;98732.86;;;18.11;34.96
66801;BME280;53703;50.326;19.122;2023-05-11T12:55:30;98730.10;;;18.14;34.92
66801;BME280;53703;50.326;19.122;2023-05-11T12:58:24;98743.72;;;18.23;34.72
66801;BME280;53703;50.326;19.122;2023-05-11T13:01:41;98740.39;;;18.20;35.28
66801;BME280;53703;50.326;19.122;2023-05-11T13:04:35;98729.88;;;18.09;35.88
66801;BME280;53703;50.326;19.122;2023-05-11T13:07:29;98729.91;;;18.13;35.58
66801;BME280;53703;50.326;19.122;2023-05-11T13:10:26;98731.48;;;18.05;36.13
66801;BME280;53703;50.326;19.122;2023-05-11T13:13:30;98724.00;;;17.95;36.52
66801;BME280;53703;50.326;19.122;2023-05-11T13:16:27;98724.11;;;18.07;36.38
66801;BME280;53703;50.326;19.122;2023-05-11T13:19:41;98722.77;;;18.02;35.99
66801;BME280;53703;50.326;19.122;2023-05-11T13:22:35;98726.17;;;18.17;35.65
66801;BME280;53703;50.326;19.122;2023-05-11T13:25:30;98723.00;;;18.22;35.45
66801;BME280;53703;50.326;19.122;2023-05-11T13:28:24;98717.09;;;18.17;35.86
66801;BME280;53703;50.326;19.122;2023-05-11T13:31:18;98713.23;;;18.12;36.11
66801;BME280;53703;50.326;19.122;2023-05-11T13:34:12;98710.73;;;18.21;35.30
66801;BME280;53703;50.326;19.122;2023-05-11T13:37:07;98708.16;;;18.06;36.25
66801;BME280;53703;50.326;19.122;2023-05-11T13:40:01;98707.39;;;18.05;36.00
66801;BME280;53703;50.326;19.122;2023-05-11T13:42:55;98699.77;;;18.13;35.61
66801;BME280;53703;50.326;19.122;2023-05-11T13:45:49;98707.84;;;18.22;35.35
66801;BME280;53703;50.326;19.122;2023-05-11T13:48:42;98700.07;;;18.23;35.36
66801;BME280;53703;50.326;19.122;2023-05-11T13:51:37;98699.58;;;18.26;35.13
66801;BME280;53703;50.326;19.122;2023-05-11T13:54:34;98693.02;;;18.14;36.09
66801;BME280;53703;50.326;19.122;2023-05-11T13:57:27;98697.17;;;18.06;37.28
66801;BME280;53703;50.326;19.122;2023-05-11T14:00:22;98698.55;;;18.07;37.07
66801;BME280;53703;50.326;19.122;2023-05-11T14:03:16;98696.98;;;18.22;35.87
66801;BME280;53703;50.326;19.122;2023-05-11T14:06:12;98693.85;;;18.18;35.85
66801;BME280;53703;50.326;19.122;2023-05-11T14:09:05;98689.80;;;18.20;36.45
66801;BME280;53703;50.326;19.122;2023-05-11T14:12:00;98691.05;;;18.23;36.07
66801;BME280;53703;50.326;19.122;2023-05-11T14:14:53;98695.23;;;18.28;35.26
66801;BME280;53703;50.326;19.122;2023-05-11T14:17:47;98692.02;;;18.26;35.07
66801;BME280;53703;50.326;19.122;2023-05-11T14:20:41;98690.54;;;18.13;37.39
66801;BME280;53703;50.326;19.122;2023-05-11T14:23:35;98689.46;;;18.03;38.12
66801;BME280;53703;50.326;19.122;2023-05-11T14:26:36;98682.98;;;17.98;37.65
66801;BME280;53703;50.326;19.122;2023-05-11T14:29:30;98684.06;;;18.24;36.34
66801;BME280;53703;50.326;19.122;2023-05-11T14:32:24;98683.48;;;18.28;35.74
66801;BME280;53703;50.326;19.122;2023-05-11T14:35:18;98675.96;;;18.22;36.13
66801;BME280;53703;50.326;19.122;2023-05-11T14:38:13;98674.59;;;18.24;35.37
66801;BME280;53703;50.326;19.122;2023-05-11T14:41:07;98672.16;;;18.06;36.97
66801;BME280;53703;50.326;19.122;2023-05-11T14:44:01;98667.70;;;18.04;36.65
66801;BME280;53703;50.326;19.122;2023-05-11T14:46:55;98664.29;;;18.28;36.39
66801;BME280;53703;50.326;19.122;2023-05-11T14:49:49;98666.11;;;18.31;35.30
66801;BME280;53703;50.326;19.122;2023-05-11T14:52:42;98674.17;;;18.37;35.44
66801;BME280;53703;50.326;19.122;2023-05-11T14:55:37;98666.84;;;18.40;34.20
66801;BME280;53703;50.326;19.122;2023-05-11T14:58:30;98672.16;;;18.21;37.23
66801;BME280;53703;50.326;19.122;2023-05-11T15:01:24;98668.19;;;18.20;36.00
66801;BME280;53703;50.326;19.122;2023-05-11T15:04:19;98666.69;;;18.38;33.86
66801;BME280;53703;50.326;19.122;2023-05-11T15:07:13;98663.48;;;18.27;36.26
66801;BME280;53703;50.326;19.122;2023-05-11T15:10:08;98670.14;;;18.31;34.63
66801;BME280;53703;50.326;19.122;2023-05-11T15:13:02;98673.12;;;18.47;33.54
66801;BME280;53703;50.326;19.122;2023-05-11T15:15:56;98668.79;;;18.36;34.43
66801;BME280;53703;50.326;19.122;2023-05-11T15:18:51;98665.33;;;18.40;34.76
66801;BME280;53703;50.326;19.122;2023-05-11T15:21:45;98666.64;;;18.33;35.58
66801;BME280;53703;50.326;19.122;2023-05-11T15:24:39;98660.48;;;18.27;37.01